Frogtown, Pennsylvania
Current Conditions -  °F | °C
As of 7:56 PM on Friday 24 Oct 2014 (Local Time) from KCXY Reporting Station
Clear Clear  
Wind Chill: 59°   Ceiling: Unl
Heat Index: 59°   Visibility: 10mi
Dew Point: 36°   Wind: 8mph
Humidity: 42%   Direction: 270°W
Pressure: 29.91"   Gusts: NA
Location:  40.2034°N, 76.87°W
Report Text: KCXY 242356Z 27007KT 10SM CLR 15/02 A2991 RMK AO2 SLP129 T01500022 10206 20150 53012
Loading
Personal Weather Stations






























Interactive Weather Map
Tropical Storm Tracking
New forecast layout! Learn more

10-Day Weather Forecast

Advertisements
Track Severe Weather on mobile